Airport ID:K63S
Update Time (UTC):08/03/2021 00:33
Wind Speed (Knots):6
Wind Direction (Magnetic):100
Temperature (°C):2
Dew Point (°C):1
Humidity (%):91
Altimeter (inHg):30.09
Density Altitude (Feet):
Visibility:10+
Clouds (Hundreds of feet):FEW095
Present Weather:
METAR:METAR K63S 080030Z AUTO 11008KT 10SM FEW004 FEW095 02/01 A3009 RMK A01

The data displayed is for advisory purposes only and is not to be used for flight planning or operations.